Latest Weather Observations for Banana Bank

IDQ60801

Issued at 6:05 am EST Thursday 2 October 2014 (issued every 30 minutes, with the page automatically refreshed every 10 minutes)

About weather observations | Map of weather stations | Latest weather observations for QLD | Other Formats
Station Details ID: 040925 Name: BANANA BANK NORTH BEACON Lat: -27.53 Lon: 153.33 Height: 7.0 m
Data from the previous 72 hours. | See also: Recent months for locations in Queensland
Date/Time
EST
Temp
°C
App
Temp
°C
Dew
Point
Rel
Hum
%
Delta-T
°C
Wind Press
QNH
hPa
Press
MSL
hPa
Rain
since 9 am
mm
Dir
 
Spd
km/h
Gust
km/h
Spd
kts
Gust
kts
02/06:00am - - - - - SE 32 37 17 20 - - -
02/05:30am - - - - - SE 33 41 18 22 - - -
02/05:00am - - - - - SE 33 41 18 22 - - -
02/04:30am - - - - - SE 35 44 19 24 - - -
02/04:00am - - - - - SSE 37 43 20 23 - - -
02/03:30am - - - - - SE 39 48 21 26 - - -
02/03:00am - - - - - SE 37 46 20 25 - - -
02/02:30am - - - - - SSE 41 48 22 26 - - -
02/02:00am - - - - - SSE 41 48 22 26 - - -
02/01:30am - - - - - SSE 35 41 19 22 - - -
02/01:00am - - - - - SSE 39 48 21 26 - - -
02/12:30am - - - - - SSE 41 52 22 28 - - -
02/12:00am - - - - - SSE 41 52 22 28 - - -
 
Date/Time
EST
Temp
°C
App
Temp
°C
Dew
Point
Rel
Hum
%
Delta-T
°C
Wind Press
QNH
hPa
Press
MSL
hPa
Rain
since 9 am
mm
Dir
 
Spd
km/h
Gust
km/h
Spd
kts
Gust
kts
01/11:30pm - - - - - SSE 44 54 24 29 - - -
01/11:00pm - - - - - SSE 44 59 24 32 - - -
01/10:30pm - - - - - SSE 44 57 24 31 - - -
01/10:00pm - - - - - SSE 50 63 27 34 - - -
01/09:30pm - - - - - SSE 48 63 26 34 - - -
01/09:00pm - - - - - SSE 50 67 27 36 - - -
01/08:30pm - - - - - SSE 52 69 28 37 - - -
01/08:00pm - - - - - SSE 52 67 28 36 - - -
01/07:30pm - - - - - SSE 57 72 31 39 - - -
01/07:21pm - - - - - SSE 52 72 28 39 - - -
01/07:00pm - - - - - SSE 46 57 25 31 - - -
01/06:30pm - - - - - SSE 35 48 19 26 - - -
01/06:00pm - - - - - SSE 24 37 13 20 - - -
01/05:30pm - - - - - NNW 13 17 7 9 - - -
01/05:00pm - - - - - N 15 19 8 10 - - -
01/04:30pm - - - - - NNE 15 19 8 10 - - -
01/04:00pm - - - - - N 15 20 8 11 - - -
01/03:30pm - - - - - N 24 30 13 16 - - -
01/03:00pm - - - - - N 24 28 13 15 - - -
01/02:30pm - - - - - N 22 26 12 14 - - -
01/02:00pm - - - - - N 24 26 13 14 - - -
01/01:30pm - - - - - N 24 28 13 15 - - -
01/01:00pm - - - - - N 24 30 13 16 - - -
01/12:30pm - - - - - N 28 33 15 18 - - -
01/12:00pm - - - - - N 32 35 17 19 - - -
01/11:30am - - - - - N 32 35 17 19 - - -
01/11:00am - - - - - N 32 35 17 19 - - -
01/10:30am - - - - - N 32 33 17 18 - - -
01/10:00am - - - - - N 26 30 14 16 - - -
01/09:30am - - - - - N 24 28 13 15 - - -
01/09:00am - - - - - NNW 22 26 12 14 - - -
01/08:30am - - - - - NW 22 26 12 14 - - -
01/08:00am - - - - - NNW 26 30 14 16 - - -
01/07:30am - - - - - NNW 26 30 14 16 - - -
01/07:00am - - - - - NNW 28 32 15 17 - - -
01/06:30am - - - - - NNW 30 35 16 19 - - -
01/06:00am - - - - - NNW 30 33 16 18 - - -
01/05:30am - - - - - NNW 32 35 17 19 - - -
01/05:00am - - - - - NNW 33 37 18 20 - - -
01/04:30am - - - - - N 33 39 18 21 - - -
01/04:00am - - - - - N 33 37 18 20 - - -
01/03:30am - - - - - N 33 39 18 21 - - -
01/03:00am - - - - - N 33 39 18 21 - - -
01/02:30am - - - - - N 35 41 19 22 - - -
01/02:00am - - - - - N 33 43 18 23 - - -
01/01:30am - - - - - N 35 43 19 23 - - -
01/01:00am - - - - - N 30 35 16 19 - - -
01/12:30am - - - - - N 32 39 17 21 - - -
01/12:00am - - - - - N 37 43 20 23 - - -
 
Date/Time
EST
Temp
°C
App
Temp
°C
Dew
Point
Rel
Hum
%
Delta-T
°C
Wind Press
QNH
hPa
Press
MSL
hPa
Rain
since 9 am
mm
Dir
 
Spd
km/h
Gust
km/h
Spd
kts
Gust
kts
30/11:30pm - - - - - N 35 41 19 22 - - -
30/11:00pm - - - - - N 33 41 18 22 - - -
30/10:30pm - - - - - N 33 39 18 21 - - -
30/10:00pm - - - - - N 32 37 17 20 - - -
30/09:30pm - - - - - N 28 35 15 19 - - -
30/09:00pm - - - - - N 26 32 14 17 - - -
30/08:30pm - - - - - N 26 32 14 17 - - -
30/08:00pm - - - - - N 22 30 12 16 - - -
30/07:30pm - - - - - N 24 28 13 15 - - -
30/07:00pm - - - - - N 26 32 14 17 - - -
30/06:30pm - - - - - N 28 33 15 18 - - -
30/06:00pm - - - - - N 28 33 15 18 - - -
30/05:30pm - - - - - NNE 26 32 14 17 - - -
30/05:00pm - - - - - NNE 26 33 14 18 - - -
30/04:30pm - - - - - N 28 35 15 19 - - -
30/04:00pm - - - - - NNE 28 33 15 18 - - -
30/03:30pm - - - - - NNE 26 33 14 18 - - -
30/03:00pm - - - - - NNE 28 37 15 20 - - -
30/02:30pm - - - - - N 28 37 15 20 - - -
30/02:00pm - - - - - N 30 35 16 19 - - -
30/01:30pm - - - - - N 28 33 15 18 - - -
30/01:00pm - - - - - N 30 33 16 18 - - -
30/12:30pm - - - - - N 28 32 15 17 - - -
30/12:00pm - - - - - N 24 26 13 14 - - -
30/11:30am - - - - - N 22 24 12 13 - - -
30/11:00am - - - - - N 19 20 10 11 - - -
30/10:30am - - - - - N 19 20 10 11 - - -
30/10:00am - - - - - N 17 20 9 11 - - -
30/09:30am - - - - - N 15 19 8 10 - - -
30/09:00am - - - - - NNW 13 15 7 8 - - -
30/08:30am - - - - - NNW 13 15 7 8 - - -
30/08:00am - - - - - NNW 9 13 5 7 - - -
30/07:30am - - - - - NW 9 11 5 6 - - -
30/07:00am - - - - - WNW 9 11 5 6 - - -
30/06:30am - - - - - NW 9 11 5 6 - - -
30/06:00am - - - - - WNW 11 13 6 7 - - -
30/05:30am - - - - - W 13 15 7 8 - - -
30/05:00am - - - - - NNW 17 20 9 11 - - -
30/04:30am - - - - - NW 9 13 5 7 - - -
30/04:00am - - - - - WNW 9 9 5 5 - - -
30/03:30am - - - - - N 19 22 10 12 - - -
30/03:00am - - - - - N 20 22 11 12 - - -
30/02:30am - - - - - N 22 26 12 14 - - -
30/02:00am - - - - - N 22 26 12 14 - - -
30/01:30am - - - - - N 22 26 12 14 - - -
30/01:00am - - - - - N 20 24 11 13 - - -
30/12:30am - - - - - NNW 19 20 10 11 - - -
30/12:00am - - - - - NNW 19 22 10 12 - - -
 
Date/Time
EST
Temp
°C
App
Temp
°C
Dew
Point
Rel
Hum
%
Delta-T
°C
Wind Press
QNH
hPa
Press
MSL
hPa
Rain
since 9 am
mm
Dir
 
Spd
km/h
Gust
km/h
Spd
kts
Gust
kts
29/11:30pm - - - - - NNW 22 26 12 14 - - -
29/11:00pm - - - - - N 26 30 14 16 - - -
29/10:30pm - - - - - N 24 30 13 16 - - -
29/10:00pm - - - - - N 28 32 15 17 - - -
29/09:30pm - - - - - N 26 30 14 16 - - -
29/09:00pm - - - - - N 26 32 14 17 - - -
29/08:30pm - - - - - N 28 32 15 17 - - -
29/08:00pm - - - - - N 26 28 14 15 - - -
29/07:30pm - - - - - N 22 28 12 15 - - -
29/07:00pm - - - - - N 20 26 11 14 - - -
29/06:30pm - - - - - N 20 26 11 14 - - -
29/06:00pm - - - - - NNE 24 30 13 16 - - -
29/05:30pm - - - - - NNE 20 28 11 15 - - -
29/05:00pm - - - - - NNE 24 32 13 17 - - -
29/04:30pm - - - - - NNE 24 30 13 16 - - -
29/04:00pm - - - - - NNE 22 26 12 14 - - -
29/03:30pm - - - - - NNE 20 30 11 16 - - -
29/03:00pm - - - - - N 22 28 12 15 - - -
29/02:30pm - - - - - N 17 20 9 11 - - -
29/02:00pm - - - - - N 15 19 8 10 - - -
29/01:30pm - - - - - N 17 20 9 11 - - -
29/01:00pm - - - - - N 15 19 8 10 - - -
29/12:30pm - - - - - N 15 17 8 9 - - -
29/12:00pm - - - - - N 15 19 8 10 - - -
29/11:30am - - - - - N 15 17 8 9 - - -
29/11:00am - - - - - N 11 13 6 7 - - -
29/10:30am - - - - - NNW 9 13 5 7 - - -
29/10:00am - - - - - WNW 6 7 3 4 - - -
29/09:30am - - - - - WSW 2 4 1 2 - - -
29/09:00am - - - - - CALM 0 0 0 0 - - -
29/08:30am - - - - - CALM 0 0 0 0 - - -
29/08:00am - - - - - CALM 0 0 0 0 - - -
29/07:30am - - - - - SW 2 4 1 2 - - -
29/07:00am - - - - - SW 4 6 2 3 - - -
29/06:30am - - - - - SSW 6 7 3 4 - - -

Other Formats:

Comma delimited format used in spreadsheet applications
http://www.bom.gov.au/fwo/IDQ60801/IDQ60801.94591.axf

JavaScript Object Notation format (JSON) in row-major order
http://www.bom.gov.au/fwo/IDQ60801/IDQ60801.94591.json